sensor_id;sensor_type;location;lat;lon;timestamp;P1;durP1;ratioP1;P2;durP2;ratioP2
4825;SDS011;2427;50.934;6.776;2023-08-08T00:01:31;2.40;;;1.63;;
4825;SDS011;2427;50.934;6.776;2023-08-08T00:03:57;5.00;;;1.37;;
4825;SDS011;2427;50.934;6.776;2023-08-08T00:06:23;3.17;;;1.63;;
4825;SDS011;2427;50.934;6.776;2023-08-08T00:08:48;1.87;;;1.60;;
4825;SDS011;2427;50.934;6.776;2023-08-08T00:11:14;2.67;;;1.83;;
4825;SDS011;2427;50.934;6.776;2023-08-08T00:13:40;2.03;;;1.83;;
4825;SDS011;2427;50.934;6.776;2023-08-08T00:16:05;7.83;;;1.60;;
4825;SDS011;2427;50.934;6.776;2023-08-08T00:18:31;2.77;;;1.87;;
4825;SDS011;2427;50.934;6.776;2023-08-08T00:20:57;2.40;;;2.00;;
4825;SDS011;2427;50.934;6.776;2023-08-08T00:23:22;3.30;;;1.80;;
4825;SDS011;2427;50.934;6.776;2023-08-08T00:25:48;2.50;;;1.80;;
4825;SDS011;2427;50.934;6.776;2023-08-08T00:28:16;4.93;;;1.67;;
4825;SDS011;2427;50.934;6.776;2023-08-08T00:30:42;2.03;;;1.60;;
4825;SDS011;2427;50.934;6.776;2023-08-08T00:33:08;1.77;;;1.63;;
4825;SDS011;2427;50.934;6.776;2023-08-08T00:35:34;3.13;;;1.70;;
4825;SDS011;2427;50.934;6.776;2023-08-08T00:37:59;1.73;;;1.60;;
4825;SDS011;2427;50.934;6.776;2023-08-08T00:40:25;3.13;;;1.40;;
4825;SDS011;2427;50.934;6.776;2023-08-08T00:42:50;4.33;;;1.97;;
4825;SDS011;2427;50.934;6.776;2023-08-08T00:45:16;2.33;;;2.10;;
4825;SDS011;2427;50.934;6.776;2023-08-08T00:47:42;1.90;;;1.50;;
4825;SDS011;2427;50.934;6.776;2023-08-08T00:50:07;5.07;;;1.90;;
4825;SDS011;2427;50.934;6.776;2023-08-08T00:52:35;4.20;;;1.93;;
4825;SDS011;2427;50.934;6.776;2023-08-08T00:55:02;2.00;;;1.50;;
4825;SDS011;2427;50.934;6.776;2023-08-08T00:57:28;2.40;;;1.83;;
4825;SDS011;2427;50.934;6.776;2023-08-08T00:59:54;5.00;;;2.17;;
4825;SDS011;2427;50.934;6.776;2023-08-08T01:12:42;6.30;;;1.70;;
4825;SDS011;2427;50.934;6.776;2023-08-08T01:15:11;3.03;;;2.07;;
4825;SDS011;2427;50.934;6.776;2023-08-08T01:17:37;2.73;;;1.90;;
4825;SDS011;2427;50.934;6.776;2023-08-08T01:20:06;2.37;;;1.93;;
4825;SDS011;2427;50.934;6.776;2023-08-08T01:22:37;1.73;;;1.63;;
4825;SDS011;2427;50.934;6.776;2023-08-08T01:25:08;2.33;;;2.13;;
4825;SDS011;2427;50.934;6.776;2023-08-08T01:27:34;2.33;;;2.00;;
4825;SDS011;2427;50.934;6.776;2023-08-08T01:30:00;2.83;;;2.00;;
4825;SDS011;2427;50.934;6.776;2023-08-08T01:32:26;2.10;;;1.60;;
4825;SDS011;2427;50.934;6.776;2023-08-08T01:34:51;6.63;;;1.93;;
4825;SDS011;2427;50.934;6.776;2023-08-08T01:37:18;2.10;;;1.90;;
4825;SDS011;2427;50.934;6.776;2023-08-08T01:39:47;1.57;;;1.47;;
4825;SDS011;2427;50.934;6.776;2023-08-08T01:42:15;5.50;;;2.07;;
4825;SDS011;2427;50.934;6.776;2023-08-08T01:44:43;7.47;;;2.07;;
4825;SDS011;2427;50.934;6.776;2023-08-08T01:47:09;2.37;;;2.17;;
4825;SDS011;2427;50.934;6.776;2023-08-08T01:49:34;5.57;;;2.47;;
4825;SDS011;2427;50.934;6.776;2023-08-08T01:52:00;6.07;;;2.50;;
4825;SDS011;2427;50.934;6.776;2023-08-08T01:54:25;3.50;;;1.90;;
4825;SDS011;2427;50.934;6.776;2023-08-08T01:56:51;2.17;;;1.70;;
4825;SDS011;2427;50.934;6.776;2023-08-08T01:59:16;5.00;;;2.20;;
4825;SDS011;2427;50.934;6.776;2023-08-08T02:01:42;4.40;;;2.60;;
4825;SDS011;2427;50.934;6.776;2023-08-08T02:04:07;3.73;;;2.20;;
4825;SDS011;2427;50.934;6.776;2023-08-08T02:06:33;5.93;;;2.00;;
4825;SDS011;2427;50.934;6.776;2023-08-08T02:08:59;2.83;;;1.87;;
4825;SDS011;2427;50.934;6.776;2023-08-08T02:11:24;4.70;;;2.60;;
4825;SDS011;2427;50.934;6.776;2023-08-08T02:13:50;3.07;;;1.83;;
4825;SDS011;2427;50.934;6.776;2023-08-08T02:16:16;5.47;;;2.43;;
4825;SDS011;2427;50.934;6.776;2023-08-08T02:18:42;3.90;;;1.93;;
4825;SDS011;2427;50.934;6.776;2023-08-08T02:21:08;3.90;;;2.20;;
4825;SDS011;2427;50.934;6.776;2023-08-08T02:23:34;7.53;;;1.87;;
4825;SDS011;2427;50.934;6.776;2023-08-08T02:26:00;3.63;;;2.30;;
4825;SDS011;2427;50.934;6.776;2023-08-08T02:28:25;1.67;;;1.43;;
4825;SDS011;2427;50.934;6.776;2023-08-08T02:30:52;4.10;;;2.20;;
4825;SDS011;2427;50.934;6.776;2023-08-08T02:33:18;3.97;;;1.67;;
4825;SDS011;2427;50.934;6.776;2023-08-08T02:35:44;2.33;;;2.10;;
4825;SDS011;2427;50.934;6.776;2023-08-08T02:38:09;6.57;;;1.77;;
4825;SDS011;2427;50.934;6.776;2023-08-08T02:40:35;2.73;;;2.00;;
4825;SDS011;2427;50.934;6.776;2023-08-08T02:43:00;5.37;;;1.73;;
4825;SDS011;2427;50.934;6.776;2023-08-08T02:45:26;2.87;;;2.00;;
4825;SDS011;2427;50.934;6.776;2023-08-08T02:47:52;4.13;;;1.90;;
4825;SDS011;2427;50.934;6.776;2023-08-08T02:50:17;6.23;;;1.63;;
4825;SDS011;2427;50.934;6.776;2023-08-08T02:52:43;3.47;;;1.70;;
4825;SDS011;2427;50.934;6.776;2023-08-08T02:55:08;2.77;;;2.00;;
4825;SDS011;2427;50.934;6.776;2023-08-08T02:57:34;2.27;;;1.77;;
4825;SDS011;2427;50.934;6.776;2023-08-08T02:59:59;2.07;;;1.50;;
4825;SDS011;2427;50.934;6.776;2023-08-08T03:02:25;4.23;;;1.90;;
4825;SDS011;2427;50.934;6.776;2023-08-08T03:04:50;2.23;;;1.60;;
4825;SDS011;2427;50.934;6.776;2023-08-08T03:07:16;4.17;;;2.20;;
4825;SDS011;2427;50.934;6.776;2023-08-08T03:09:41;2.57;;;1.70;;
4825;SDS011;2427;50.934;6.776;2023-08-08T03:12:07;2.43;;;1.47;;
4825;SDS011;2427;50.934;6.776;2023-08-08T03:14:33;3.17;;;2.07;;
4825;SDS011;2427;50.934;6.776;2023-08-08T03:16:59;3.33;;;1.80;;
4825;SDS011;2427;50.934;6.776;2023-08-08T03:19:25;3.13;;;1.73;;
4825;SDS011;2427;50.934;6.776;2023-08-08T03:21:51;3.90;;;2.13;;
4825;SDS011;2427;50.934;6.776;2023-08-08T03:24:17;3.73;;;1.90;;
4825;SDS011;2427;50.934;6.776;2023-08-08T03:26:42;2.93;;;1.93;;
4825;SDS011;2427;50.934;6.776;2023-08-08T03:29:08;2.60;;;1.83;;
4825;SDS011;2427;50.934;6.776;2023-08-08T03:31:35;4.73;;;1.93;;
4825;SDS011;2427;50.934;6.776;2023-08-08T03:34:01;4.07;;;1.80;;
4825;SDS011;2427;50.934;6.776;2023-08-08T03:36:27;4.50;;;1.80;;
4825;SDS011;2427;50.934;6.776;2023-08-08T03:38:53;8.90;;;1.93;;
4825;SDS011;2427;50.934;6.776;2023-08-08T03:41:19;2.30;;;1.83;;
4825;SDS011;2427;50.934;6.776;2023-08-08T03:43:44;2.10;;;1.90;;
4825;SDS011;2427;50.934;6.776;2023-08-08T03:46:10;7.30;;;2.53;;
4825;SDS011;2427;50.934;6.776;2023-08-08T03:48:36;2.67;;;1.73;;
4825;SDS011;2427;50.934;6.776;2023-08-08T03:51:02;10.00;;;2.23;;
4825;SDS011;2427;50.934;6.776;2023-08-08T03:53:28;2.50;;;1.93;;
4825;SDS011;2427;50.934;6.776;2023-08-08T03:55:54;2.80;;;1.80;;
4825;SDS011;2427;50.934;6.776;2023-08-08T03:58:19;4.00;;;2.17;;
4825;SDS011;2427;50.934;6.776;2023-08-08T04:00:45;6.43;;;1.97;;
4825;SDS011;2427;50.934;6.776;2023-08-08T04:03:14;2.70;;;2.00;;
4825;SDS011;2427;50.934;6.776;2023-08-08T04:05:41;3.80;;;2.10;;
4825;SDS011;2427;50.934;6.776;2023-08-08T04:08:11;9.93;;;2.17;;
4825;SDS011;2427;50.934;6.776;2023-08-08T04:10:36;3.30;;;2.10;;
4825;SDS011;2427;50.934;6.776;2023-08-08T04:13:02;3.13;;;2.03;;
4825;SDS011;2427;50.934;6.776;2023-08-08T04:15:29;4.70;;;2.40;;
4825;SDS011;2427;50.934;6.776;2023-08-08T04:17:54;5.47;;;2.20;;
4825;SDS011;2427;50.934;6.776;2023-08-08T04:20:20;9.77;;;2.90;;
4825;SDS011;2427;50.934;6.776;2023-08-08T04:22:45;3.53;;;2.37;;
4825;SDS011;2427;50.934;6.776;2023-08-08T04:25:11;4.67;;;2.47;;
4825;SDS011;2427;50.934;6.776;2023-08-08T04:27:36;6.93;;;2.40;;
4825;SDS011;2427;50.934;6.776;2023-08-08T04:30:02;6.10;;;2.27;;
4825;SDS011;2427;50.934;6.776;2023-08-08T04:32:29;6.50;;;2.43;;
4825;SDS011;2427;50.934;6.776;2023-08-08T04:34:55;3.60;;;2.53;;
4825;SDS011;2427;50.934;6.776;2023-08-08T04:37:21;4.30;;;2.20;;
4825;SDS011;2427;50.934;6.776;2023-08-08T04:39:46;3.93;;;2.30;;
4825;SDS011;2427;50.934;6.776;2023-08-08T04:42:12;8.20;;;2.70;;
4825;SDS011;2427;50.934;6.776;2023-08-08T04:44:37;3.10;;;2.40;;
4825;SDS011;2427;50.934;6.776;2023-08-08T04:47:03;6.67;;;2.93;;
4825;SDS011;2427;50.934;6.776;2023-08-08T04:49:29;11.20;;;3.00;;
4825;SDS011;2427;50.934;6.776;2023-08-08T04:51:55;6.60;;;2.70;;
4825;SDS011;2427;50.934;6.776;2023-08-08T04:54:20;4.13;;;2.83;;
4825;SDS011;2427;50.934;6.776;2023-08-08T04:56:46;4.50;;;3.03;;
4825;SDS011;2427;50.934;6.776;2023-08-08T04:59:11;4.00;;;2.57;;
4825;SDS011;2427;50.934;6.776;2023-08-08T05:01:37;5.03;;;2.43;;
4825;SDS011;2427;50.934;6.776;2023-08-08T05:04:02;4.50;;;2.70;;
4825;SDS011;2427;50.934;6.776;2023-08-08T05:06:31;4.43;;;2.80;;
4825;SDS011;2427;50.934;6.776;2023-08-08T05:08:56;6.57;;;2.90;;
4825;SDS011;2427;50.934;6.776;2023-08-08T05:11:22;4.03;;;2.50;;
4825;SDS011;2427;50.934;6.776;2023-08-08T05:13:48;4.33;;;2.63;;
4825;SDS011;2427;50.934;6.776;2023-08-08T05:16:14;8.83;;;3.10;;
4825;SDS011;2427;50.934;6.776;2023-08-08T05:18:39;4.83;;;2.70;;
4825;SDS011;2427;50.934;6.776;2023-08-08T05:21:05;8.93;;;2.90;;
4825;SDS011;2427;50.934;6.776;2023-08-08T05:23:31;7.70;;;2.60;;
4825;SDS011;2427;50.934;6.776;2023-08-08T05:25:57;6.07;;;2.90;;
4825;SDS011;2427;50.934;6.776;2023-08-08T05:28:22;7.27;;;3.53;;
4825;SDS011;2427;50.934;6.776;2023-08-08T05:30:48;7.33;;;3.00;;
4825;SDS011;2427;50.934;6.776;2023-08-08T05:33:13;4.30;;;2.40;;
4825;SDS011;2427;50.934;6.776;2023-08-08T05:35:39;9.43;;;3.00;;
4825;SDS011;2427;50.934;6.776;2023-08-08T05:38:04;8.80;;;3.10;;
4825;SDS011;2427;50.934;6.776;2023-08-08T05:40:30;7.10;;;2.80;;
4825;SDS011;2427;50.934;6.776;2023-08-08T05:42:55;8.50;;;2.90;;
4825;SDS011;2427;50.934;6.776;2023-08-08T05:45:21;7.00;;;3.47;;
4825;SDS011;2427;50.934;6.776;2023-08-08T05:47:46;4.63;;;3.10;;
4825;SDS011;2427;50.934;6.776;2023-08-08T05:50:12;3.07;;;2.77;;
4825;SDS011;2427;50.934;6.776;2023-08-08T05:52:37;5.97;;;2.80;;
4825;SDS011;2427;50.934;6.776;2023-08-08T05:55:03;5.53;;;2.60;;
4825;SDS011;2427;50.934;6.776;2023-08-08T05:57:29;4.33;;;2.63;;
4825;SDS011;2427;50.934;6.776;2023-08-08T05:59:54;3.83;;;2.87;;
4825;SDS011;2427;50.934;6.776;2023-08-08T06:02:20;7.53;;;3.00;;
4825;SDS011;2427;50.934;6.776;2023-08-08T06:04:46;6.03;;;3.10;;
4825;SDS011;2427;50.934;6.776;2023-08-08T06:07:11;7.23;;;3.47;;
4825;SDS011;2427;50.934;6.776;2023-08-08T06:09:38;6.70;;;2.70;;
4825;SDS011;2427;50.934;6.776;2023-08-08T06:12:04;10.97;;;3.20;;
4825;SDS011;2427;50.934;6.776;2023-08-08T06:14:30;5.60;;;2.63;;
4825;SDS011;2427;50.934;6.776;2023-08-08T06:16:56;10.10;;;2.70;;
4825;SDS011;2427;50.934;6.776;2023-08-08T06:19:21;6.90;;;2.67;;
4825;SDS011;2427;50.934;6.776;2023-08-08T06:21:47;4.30;;;2.60;;
4825;SDS011;2427;50.934;6.776;2023-08-08T06:24:13;5.57;;;2.90;;
4825;SDS011;2427;50.934;6.776;2023-08-08T06:26:39;5.40;;;2.43;;
4825;SDS011;2427;50.934;6.776;2023-08-08T06:29:04;7.57;;;2.40;;
4825;SDS011;2427;50.934;6.776;2023-08-08T06:31:30;8.43;;;2.40;;
4825;SDS011;2427;50.934;6.776;2023-08-08T06:33:56;4.53;;;2.20;;
4825;SDS011;2427;50.934;6.776;2023-08-08T06:36:21;10.40;;;2.60;;
4825;SDS011;2427;50.934;6.776;2023-08-08T06:38:47;11.63;;;2.67;;
4825;SDS011;2427;50.934;6.776;2023-08-08T06:41:13;7.17;;;2.57;;
4825;SDS011;2427;50.934;6.776;2023-08-08T06:43:39;10.03;;;2.00;;
4825;SDS011;2427;50.934;6.776;2023-08-08T06:46:04;7.20;;;2.07;;
4825;SDS011;2427;50.934;6.776;2023-08-08T06:48:30;4.67;;;2.10;;
4825;SDS011;2427;50.934;6.776;2023-08-08T06:50:55;4.93;;;2.13;;
4825;SDS011;2427;50.934;6.776;2023-08-08T06:53:21;2.20;;;1.90;;
4825;SDS011;2427;50.934;6.776;2023-08-08T06:55:47;4.33;;;1.93;;
4825;SDS011;2427;50.934;6.776;2023-08-08T06:58:13;4.67;;;1.93;;
4825;SDS011;2427;50.934;6.776;2023-08-08T07:00:38;8.43;;;2.33;;
4825;SDS011;2427;50.934;6.776;2023-08-08T07:03:04;11.70;;;2.23;;
4825;SDS011;2427;50.934;6.776;2023-08-08T07:05:30;6.77;;;2.30;;
4825;SDS011;2427;50.934;6.776;2023-08-08T07:07:55;4.63;;;2.20;;
4825;SDS011;2427;50.934;6.776;2023-08-08T07:10:21;13.03;;;2.97;;
4825;SDS011;2427;50.934;6.776;2023-08-08T07:12:47;11.80;;;2.70;;
4825;SDS011;2427;50.934;6.776;2023-08-08T07:15:13;8.00;;;2.80;;
4825;SDS011;2427;50.934;6.776;2023-08-08T07:17:39;3.67;;;2.10;;
4825;SDS011;2427;50.934;6.776;2023-08-08T07:20:05;4.50;;;2.23;;
4825;SDS011;2427;50.934;6.776;2023-08-08T07:22:31;4.40;;;2.10;;
4825;SDS011;2427;50.934;6.776;2023-08-08T07:24:57;5.50;;;2.67;;
4825;SDS011;2427;50.934;6.776;2023-08-08T07:27:23;11.07;;;2.50;;
4825;SDS011;2427;50.934;6.776;2023-08-08T07:29:51;6.10;;;2.47;;
4825;SDS011;2427;50.934;6.776;2023-08-08T07:32:16;6.70;;;2.60;;
4825;SDS011;2427;50.934;6.776;2023-08-08T07:34:42;12.57;;;2.60;;
4825;SDS011;2427;50.934;6.776;2023-08-08T07:37:08;7.93;;;2.60;;
4825;SDS011;2427;50.934;6.776;2023-08-08T07:39:33;9.20;;;2.97;;
4825;SDS011;2427;50.934;6.776;2023-08-08T07:41:59;5.17;;;2.90;;
4825;SDS011;2427;50.934;6.776;2023-08-08T07:44:24;8.17;;;3.10;;
4825;SDS011;2427;50.934;6.776;2023-08-08T07:46:50;11.27;;;3.30;;
4825;SDS011;2427;50.934;6.776;2023-08-08T07:49:15;5.00;;;2.77;;
4825;SDS011;2427;50.934;6.776;2023-08-08T07:51:41;6.40;;;2.97;;
4825;SDS011;2427;50.934;6.776;2023-08-08T07:54:06;6.23;;;2.73;;
4825;SDS011;2427;50.934;6.776;2023-08-08T07:56:34;5.33;;;2.50;;
4825;SDS011;2427;50.934;6.776;2023-08-08T07:59:00;10.43;;;3.57;;
4825;SDS011;2427;50.934;6.776;2023-08-08T08:01:26;6.97;;;2.93;;
4825;SDS011;2427;50.934;6.776;2023-08-08T08:03:52;5.00;;;3.10;;
4825;SDS011;2427;50.934;6.776;2023-08-08T08:06:18;7.87;;;4.10;;
4825;SDS011;2427;50.934;6.776;2023-08-08T08:08:44;6.13;;;3.00;;
4825;SDS011;2427;50.934;6.776;2023-08-08T08:11:09;13.73;;;3.80;;
4825;SDS011;2427;50.934;6.776;2023-08-08T08:13:36;8.50;;;3.93;;
4825;SDS011;2427;50.934;6.776;2023-08-08T08:16:01;8.73;;;4.17;;
4825;SDS011;2427;50.934;6.776;2023-08-08T08:18:27;6.90;;;4.03;;
4825;SDS011;2427;50.934;6.776;2023-08-08T08:20:54;4.90;;;3.57;;
4825;SDS011;2427;50.934;6.776;2023-08-08T08:23:20;8.10;;;3.73;;
4825;SDS011;2427;50.934;6.776;2023-08-08T08:25:45;7.63;;;3.57;;
4825;SDS011;2427;50.934;6.776;2023-08-08T08:28:11;11.33;;;3.70;;
4825;SDS011;2427;50.934;6.776;2023-08-08T08:30:36;4.23;;;3.17;;
4825;SDS011;2427;50.934;6.776;2023-08-08T08:33:02;8.80;;;4.10;;
4825;SDS011;2427;50.934;6.776;2023-08-08T08:35:29;6.60;;;3.07;;
4825;SDS011;2427;50.934;6.776;2023-08-08T08:37:54;3.43;;;2.60;;
4825;SDS011;2427;50.934;6.776;2023-08-08T08:40:20;5.97;;;3.40;;
4825;SDS011;2427;50.934;6.776;2023-08-08T08:42:46;6.80;;;3.50;;
4825;SDS011;2427;50.934;6.776;2023-08-08T08:45:13;5.63;;;3.23;;
4825;SDS011;2427;50.934;6.776;2023-08-08T08:47:40;5.90;;;3.33;;
4825;SDS011;2427;50.934;6.776;2023-08-08T08:50:08;6.40;;;3.87;;
4825;SDS011;2427;50.934;6.776;2023-08-08T08:52:34;7.60;;;2.80;;
4825;SDS011;2427;50.934;6.776;2023-08-08T08:55:00;5.97;;;3.00;;
4825;SDS011;2427;50.934;6.776;2023-08-08T08:57:26;5.53;;;3.27;;
4825;SDS011;2427;50.934;6.776;2023-08-08T08:59:52;4.40;;;3.07;;
4825;SDS011;2427;50.934;6.776;2023-08-08T09:02:18;6.10;;;3.30;;
4825;SDS011;2427;50.934;6.776;2023-08-08T09:04:44;6.33;;;2.93;;
4825;SDS011;2427;50.934;6.776;2023-08-08T09:07:10;5.27;;;2.70;;
4825;SDS011;2427;50.934;6.776;2023-08-08T09:09:37;6.60;;;2.83;;
4825;SDS011;2427;50.934;6.776;2023-08-08T09:12:03;3.97;;;2.50;;
4825;SDS011;2427;50.934;6.776;2023-08-08T09:14:30;3.80;;;3.03;;
4825;SDS011;2427;50.934;6.776;2023-08-08T09:16:56;5.10;;;3.10;;
4825;SDS011;2427;50.934;6.776;2023-08-08T09:19:22;10.40;;;3.10;;
4825;SDS011;2427;50.934;6.776;2023-08-08T09:21:49;3.90;;;2.50;;
4825;SDS011;2427;50.934;6.776;2023-08-08T09:24:16;3.50;;;2.77;;
4825;SDS011;2427;50.934;6.776;2023-08-08T09:26:43;6.67;;;2.87;;
4825;SDS011;2427;50.934;6.776;2023-08-08T09:29:11;4.70;;;2.90;;
4825;SDS011;2427;50.934;6.776;2023-08-08T09:31:38;5.27;;;3.40;;
4825;SDS011;2427;50.934;6.776;2023-08-08T09:34:04;16.23;;;2.50;;
4825;SDS011;2427;50.934;6.776;2023-08-08T09:36:31;5.70;;;2.80;;
4825;SDS011;2427;50.934;6.776;2023-08-08T09:38:58;4.90;;;2.63;;
4825;SDS011;2427;50.934;6.776;2023-08-08T09:41:24;7.53;;;2.73;;
4825;SDS011;2427;50.934;6.776;2023-08-08T09:43:50;4.80;;;2.73;;
4825;SDS011;2427;50.934;6.776;2023-08-08T09:46:20;4.60;;;2.20;;
4825;SDS011;2427;50.934;6.776;2023-08-08T09:48:46;7.60;;;2.60;;
4825;SDS011;2427;50.934;6.776;2023-08-08T09:51:13;5.80;;;2.70;;
4825;SDS011;2427;50.934;6.776;2023-08-08T09:53:39;4.30;;;1.97;;
4825;SDS011;2427;50.934;6.776;2023-08-08T09:56:06;4.93;;;2.47;;
4825;SDS011;2427;50.934;6.776;2023-08-08T09:58:32;3.43;;;2.30;;
4825;SDS011;2427;50.934;6.776;2023-08-08T10:00:58;6.10;;;2.63;;
4825;SDS011;2427;50.934;6.776;2023-08-08T10:03:24;11.37;;;2.43;;
4825;SDS011;2427;50.934;6.776;2023-08-08T10:05:50;4.93;;;1.90;;
4825;SDS011;2427;50.934;6.776;2023-08-08T10:08:16;3.30;;;2.50;;
4825;SDS011;2427;50.934;6.776;2023-08-08T10:10:45;6.30;;;2.50;;
4825;SDS011;2427;50.934;6.776;2023-08-08T10:13:22;2.87;;;2.23;;
4825;SDS011;2427;50.934;6.776;2023-08-08T10:15:49;3.87;;;1.90;;
4825;SDS011;2427;50.934;6.776;2023-08-08T10:18:15;6.00;;;2.70;;
4825;SDS011;2427;50.934;6.776;2023-08-08T10:20:46;4.40;;;2.17;;
4825;SDS011;2427;50.934;6.776;2023-08-08T10:23:14;8.77;;;2.17;;
4825;SDS011;2427;50.934;6.776;2023-08-08T10:25:44;3.40;;;2.00;;
4825;SDS011;2427;50.934;6.776;2023-08-08T10:28:12;3.10;;;1.60;;
4825;SDS011;2427;50.934;6.776;2023-08-08T10:30:42;5.00;;;1.70;;
4825;SDS011;2427;50.934;6.776;2023-08-08T10:33:18;5.57;;;2.00;;
4825;SDS011;2427;50.934;6.776;2023-08-08T10:38:24;4.70;;;1.70;;
4825;SDS011;2427;50.934;6.776;2023-08-08T10:40:59;6.87;;;1.80;;
4825;SDS011;2427;50.934;6.776;2023-08-08T10:43:28;5.67;;;1.60;;
4825;SDS011;2427;50.934;6.776;2023-08-08T10:46:01;3.30;;;3.00;;
4825;SDS011;2427;50.934;6.776;2023-08-08T10:48:28;2.73;;;1.63;;
4825;SDS011;2427;50.934;6.776;2023-08-08T10:50:54;4.43;;;1.90;;
4825;SDS011;2427;50.934;6.776;2023-08-08T10:53:22;5.23;;;2.00;;
4825;SDS011;2427;50.934;6.776;2023-08-08T10:55:56;3.07;;;1.77;;
4825;SDS011;2427;50.934;6.776;2023-08-08T10:58:34;3.73;;;1.87;;
4825;SDS011;2427;50.934;6.776;2023-08-08T11:01:01;8.13;;;1.63;;
4825;SDS011;2427;50.934;6.776;2023-08-08T11:03:27;3.13;;;1.70;;
4825;SDS011;2427;50.934;6.776;2023-08-08T11:05:55;3.43;;;2.00;;
4825;SDS011;2427;50.934;6.776;2023-08-08T11:08:21;2.93;;;1.50;;
4825;SDS011;2427;50.934;6.776;2023-08-08T11:10:50;3.90;;;1.43;;
4825;SDS011;2427;50.934;6.776;2023-08-08T11:13:17;3.93;;;1.57;;
4825;SDS011;2427;50.934;6.776;2023-08-08T11:15:42;4.90;;;1.60;;
4825;SDS011;2427;50.934;6.776;2023-08-08T11:18:08;4.70;;;1.50;;
4825;SDS011;2427;50.934;6.776;2023-08-08T11:20:35;5.80;;;1.30;;
4825;SDS011;2427;50.934;6.776;2023-08-08T11:23:01;5.27;;;1.40;;
4825;SDS011;2427;50.934;6.776;2023-08-08T11:25:30;7.80;;;1.60;;
4825;SDS011;2427;50.934;6.776;2023-08-08T11:27:56;5.27;;;1.80;;
4825;SDS011;2427;50.934;6.776;2023-08-08T11:30:23;3.20;;;1.70;;
4825;SDS011;2427;50.934;6.776;2023-08-08T11:32:53;6.83;;;1.87;;
4825;SDS011;2427;50.934;6.776;2023-08-08T11:35:21;1.77;;;1.30;;
4825;SDS011;2427;50.934;6.776;2023-08-08T11:37:48;1.97;;;1.60;;
4825;SDS011;2427;50.934;6.776;2023-08-08T11:40:17;3.10;;;1.67;;
4825;SDS011;2427;50.934;6.776;2023-08-08T11:42:45;2.50;;;1.30;;
4825;SDS011;2427;50.934;6.776;2023-08-08T11:45:12;1.80;;;1.50;;
4825;SDS011;2427;50.934;6.776;2023-08-08T11:47:38;2.77;;;2.00;;
4825;SDS011;2427;50.934;6.776;2023-08-08T11:50:06;2.10;;;1.40;;
4825;SDS011;2427;50.934;6.776;2023-08-08T11:52:33;3.63;;;1.73;;
4825;SDS011;2427;50.934;6.776;2023-08-08T11:55:00;5.33;;;1.33;;
4825;SDS011;2427;50.934;6.776;2023-08-08T11:57:26;5.03;;;1.60;;
4825;SDS011;2427;50.934;6.776;2023-08-08T11:59:52;3.70;;;1.40;;
4825;SDS011;2427;50.934;6.776;2023-08-08T12:02:22;1.83;;;1.40;;
4825;SDS011;2427;50.934;6.776;2023-08-08T12:04:48;2.23;;;1.57;;
4825;SDS011;2427;50.934;6.776;2023-08-08T12:07:14;1.77;;;1.30;;
4825;SDS011;2427;50.934;6.776;2023-08-08T12:09:41;12.87;;;1.90;;
4825;SDS011;2427;50.934;6.776;2023-08-08T12:12:08;1.73;;;1.27;;
4825;SDS011;2427;50.934;6.776;2023-08-08T12:14:41;4.43;;;1.43;;
4825;SDS011;2427;50.934;6.776;2023-08-08T12:17:08;5.53;;;2.10;;
4825;SDS011;2427;50.934;6.776;2023-08-08T12:19:34;2.33;;;1.63;;
4825;SDS011;2427;50.934;6.776;2023-08-08T12:22:00;6.20;;;2.47;;
4825;SDS011;2427;50.934;6.776;2023-08-08T12:24:26;7.10;;;1.80;;
4825;SDS011;2427;50.934;6.776;2023-08-08T12:26:52;5.07;;;1.73;;
4825;SDS011;2427;50.934;6.776;2023-08-08T12:29:17;2.97;;;1.63;;
4825;SDS011;2427;50.934;6.776;2023-08-08T12:31:43;3.00;;;1.20;;
4825;SDS011;2427;50.934;6.776;2023-08-08T12:34:08;3.20;;;1.40;;
4825;SDS011;2427;50.934;6.776;2023-08-08T12:36:35;3.80;;;1.43;;
4825;SDS011;2427;50.934;6.776;2023-08-08T12:39:00;2.43;;;1.63;;
4825;SDS011;2427;50.934;6.776;2023-08-08T12:41:26;3.33;;;1.50;;
4825;SDS011;2427;50.934;6.776;2023-08-08T12:43:54;3.33;;;1.37;;
4825;SDS011;2427;50.934;6.776;2023-08-08T12:46:20;2.07;;;1.23;;
4825;SDS011;2427;50.934;6.776;2023-08-08T12:48:45;2.20;;;1.50;;
4825;SDS011;2427;50.934;6.776;2023-08-08T12:51:11;2.87;;;1.67;;
4825;SDS011;2427;50.934;6.776;2023-08-08T12:53:36;4.80;;;1.37;;
4825;SDS011;2427;50.934;6.776;2023-08-08T12:56:02;3.00;;;1.53;;
4825;SDS011;2427;50.934;6.776;2023-08-08T12:58:28;5.23;;;1.50;;
4825;SDS011;2427;50.934;6.776;2023-08-08T13:00:53;3.33;;;1.60;;
4825;SDS011;2427;50.934;6.776;2023-08-08T13:03:19;3.87;;;1.47;;
4825;SDS011;2427;50.934;6.776;2023-08-08T13:05:45;4.13;;;1.57;;
4825;SDS011;2427;50.934;6.776;2023-08-08T13:08:11;6.27;;;1.40;;
4825;SDS011;2427;50.934;6.776;2023-08-08T13:10:38;3.03;;;1.53;;
4825;SDS011;2427;50.934;6.776;2023-08-08T13:13:04;3.57;;;1.70;;
4825;SDS011;2427;50.934;6.776;2023-08-08T13:15:30;1.50;;;1.27;;
4825;SDS011;2427;50.934;6.776;2023-08-08T13:17:55;2.37;;;1.20;;
4825;SDS011;2427;50.934;6.776;2023-08-08T13:20:21;2.20;;;1.30;;
4825;SDS011;2427;50.934;6.776;2023-08-08T13:22:47;3.67;;;1.40;;
4825;SDS011;2427;50.934;6.776;2023-08-08T13:25:12;3.83;;;1.80;;
4825;SDS011;2427;50.934;6.776;2023-08-08T13:27:38;2.17;;;1.10;;
4825;SDS011;2427;50.934;6.776;2023-08-08T13:30:04;3.33;;;1.60;;
4825;SDS011;2427;50.934;6.776;2023-08-08T13:32:30;3.33;;;1.50;;
4825;SDS011;2427;50.934;6.776;2023-08-08T13:34:56;3.53;;;1.53;;
4825;SDS011;2427;50.934;6.776;2023-08-08T13:37:21;4.10;;;1.50;;
4825;SDS011;2427;50.934;6.776;2023-08-08T13:39:47;3.23;;;1.30;;
4825;SDS011;2427;50.934;6.776;2023-08-08T13:42:12;4.50;;;1.60;;
4825;SDS011;2427;50.934;6.776;2023-08-08T13:44:38;2.83;;;1.60;;
4825;SDS011;2427;50.934;6.776;2023-08-08T13:47:04;4.40;;;1.63;;
4825;SDS011;2427;50.934;6.776;2023-08-08T13:49:29;4.10;;;1.67;;
4825;SDS011;2427;50.934;6.776;2023-08-08T13:51:55;5.00;;;1.33;;
4825;SDS011;2427;50.934;6.776;2023-08-08T13:54:20;2.80;;;1.20;;
4825;SDS011;2427;50.934;6.776;2023-08-08T13:56:46;7.03;;;1.77;;
4825;SDS011;2427;50.934;6.776;2023-08-08T13:59:12;2.73;;;1.50;;
4825;SDS011;2427;50.934;6.776;2023-08-08T14:01:37;6.70;;;2.00;;
4825;SDS011;2427;50.934;6.776;2023-08-08T14:04:03;1.93;;;1.23;;
4825;SDS011;2427;50.934;6.776;2023-08-08T14:06:29;3.43;;;1.30;;
4825;SDS011;2427;50.934;6.776;2023-08-08T14:08:55;2.50;;;1.47;;
4825;SDS011;2427;50.934;6.776;2023-08-08T14:11:21;3.63;;;1.45;;
4825;SDS011;2427;50.934;6.776;2023-08-08T14:13:47;4.40;;;1.60;;
4825;SDS011;2427;50.934;6.776;2023-08-08T14:16:13;3.00;;;1.53;;
4825;SDS011;2427;50.934;6.776;2023-08-08T14:18:39;2.67;;;1.37;;
4825;SDS011;2427;50.934;6.776;2023-08-08T14:21:04;2.13;;;1.20;;
4825;SDS011;2427;50.934;6.776;2023-08-08T14:23:30;7.47;;;1.23;;
4825;SDS011;2427;50.934;6.776;2023-08-08T14:25:56;6.07;;;1.30;;
4825;SDS011;2427;50.934;6.776;2023-08-08T14:28:22;1.77;;;1.27;;
4825;SDS011;2427;50.934;6.776;2023-08-08T14:30:48;1.90;;;1.20;;
4825;SDS011;2427;50.934;6.776;2023-08-08T14:33:14;2.90;;;1.23;;
4825;SDS011;2427;50.934;6.776;2023-08-08T14:35:41;3.23;;;1.50;;
4825;SDS011;2427;50.934;6.776;2023-08-08T14:38:07;2.40;;;1.00;;
4825;SDS011;2427;50.934;6.776;2023-08-08T14:40:33;3.20;;;1.23;;
4825;SDS011;2427;50.934;6.776;2023-08-08T14:42:59;1.50;;;1.17;;
4825;SDS011;2427;50.934;6.776;2023-08-08T14:45:26;4.90;;;1.40;;
4825;SDS011;2427;50.934;6.776;2023-08-08T14:47:52;4.70;;;1.60;;
4825;SDS011;2427;50.934;6.776;2023-08-08T14:50:17;2.70;;;1.30;;
4825;SDS011;2427;50.934;6.776;2023-08-08T14:52:43;2.20;;;1.70;;
4825;SDS011;2427;50.934;6.776;2023-08-08T14:55:09;4.10;;;1.00;;
4825;SDS011;2427;50.934;6.776;2023-08-08T14:57:35;3.57;;;1.50;;
4825;SDS011;2427;50.934;6.776;2023-08-08T15:00:00;3.73;;;1.37;;
4825;SDS011;2427;50.934;6.776;2023-08-08T15:02:26;3.70;;;1.30;;
4825;SDS011;2427;50.934;6.776;2023-08-08T15:04:52;2.93;;;1.30;;
4825;SDS011;2427;50.934;6.776;2023-08-08T15:07:18;4.70;;;1.57;;
4825;SDS011;2427;50.934;6.776;2023-08-08T15:09:44;1.83;;;1.10;;
4825;SDS011;2427;50.934;6.776;2023-08-08T15:12:09;1.90;;;1.27;;
4825;SDS011;2427;50.934;6.776;2023-08-08T15:14:39;3.33;;;1.47;;
4825;SDS011;2427;50.934;6.776;2023-08-08T15:17:04;2.40;;;1.07;;
4825;SDS011;2427;50.934;6.776;2023-08-08T15:19:30;3.50;;;1.03;;
4825;SDS011;2427;50.934;6.776;2023-08-08T15:21:56;3.57;;;1.57;;